createdAt,value
2019-04-28T00:02:25.308Z,10.10
2019-04-28T00:04:55.121Z,10.10
2019-04-28T00:07:25.026Z,10.10
2019-04-28T00:09:54.841Z,10.10
2019-04-28T00:12:25.708Z,10.10
2019-04-28T00:14:55.514Z,10.10
2019-04-28T00:17:25.292Z,10.10
2019-04-28T00:19:57.537Z,10.10
2019-04-28T00:22:31.778Z,10.10
2019-04-28T00:25:06.060Z,10.10
2019-04-28T00:27:35.911Z,10.10
2019-04-28T00:30:08.021Z,10.10
2019-04-28T00:32:37.921Z,10.10
2019-04-28T00:35:07.785Z,10.10
2019-04-28T00:37:38.130Z,10.10
2019-04-28T00:40:10.961Z,10.10
2019-04-28T00:42:41.357Z,10.10
2019-04-28T00:45:12.121Z,10.10
2019-04-28T00:47:42.831Z,10.10
2019-04-28T00:50:12.891Z,10.10
2019-04-28T00:52:42.705Z,10.10
2019-04-28T00:55:12.677Z,10.10
2019-04-28T00:57:42.523Z,10.00
2019-04-28T01:00:13.226Z,10.00
2019-04-28T01:02:43.063Z,10.00
2019-04-28T01:05:13.392Z,10.00
2019-04-28T01:07:43.345Z,10.00
2019-04-28T01:10:13.498Z,10.00
2019-04-28T01:12:46.370Z,9.90
2019-04-28T01:15:16.793Z,9.90
2019-04-28T01:17:49.682Z,9.80
2019-04-28T01:20:26.235Z,9.90
2019-04-28T01:22:56.029Z,9.80
2019-04-28T01:25:25.797Z,9.80
2019-04-28T01:27:56.041Z,9.80
2019-04-28T01:30:44.165Z,9.80
2019-04-28T01:33:15.756Z,9.80
2019-04-28T01:35:45.654Z,9.80
2019-04-28T01:38:16.130Z,9.80
2019-04-28T01:40:45.893Z,9.80
2019-04-28T01:43:15.705Z,9.80
2019-04-28T01:45:45.841Z,9.80
2019-04-28T01:48:15.719Z,9.80
2019-04-28T01:50:45.474Z,9.80
2019-04-28T01:53:15.321Z,9.80
2019-04-28T01:55:45.249Z,9.80
2019-04-28T01:58:15.014Z,9.80
2019-04-28T02:00:45.053Z,9.90
2019-04-28T02:03:15.000Z,9.90
2019-04-28T02:05:44.892Z,9.90
2019-04-28T02:08:14.718Z,9.90
2019-04-28T02:10:44.473Z,9.90
2019-04-28T02:13:14.246Z,9.80
2019-04-28T02:15:44.308Z,9.80
2019-04-28T02:18:14.074Z,9.70
2019-04-28T02:20:45.519Z,9.70
2019-04-28T02:23:19.918Z,9.70
2019-04-28T02:25:49.838Z,9.70
2019-04-28T02:28:19.863Z,9.70
2019-04-28T02:30:53.633Z,9.70
2019-04-28T02:33:21.403Z,9.70
2019-04-28T02:35:51.279Z,9.70
2019-04-28T02:38:21.214Z,9.70
2019-04-28T02:40:51.103Z,9.70
2019-04-28T02:43:21.170Z,9.70
2019-04-28T02:45:53.454Z,9.70
2019-04-28T02:48:24.754Z,9.60
2019-04-28T02:51:01.239Z,9.60
2019-04-28T02:53:33.608Z,9.60
2019-04-28T02:56:03.852Z,9.60
2019-04-28T02:58:35.493Z,9.60
2019-04-28T03:01:15.308Z,9.60
2019-04-28T03:03:37.219Z,9.60
2019-04-28T03:06:06.991Z,9.50
2019-04-28T03:08:36.782Z,9.50
2019-04-28T03:11:06.541Z,9.50
2019-04-28T03:13:36.458Z,9.50
2019-04-28T03:16:06.255Z,9.50
2019-04-28T03:18:37.483Z,9.50
2019-04-28T03:21:07.305Z,9.50
2019-04-28T03:23:37.300Z,9.50
2019-04-28T03:26:11.386Z,9.50
2019-04-28T03:28:42.854Z,9.50
2019-04-28T03:31:48.477Z,9.50
2019-04-28T03:33:55.491Z,9.40
2019-04-28T03:36:24.089Z,9.40
2019-04-28T03:38:54.060Z,9.40
2019-04-28T03:41:23.890Z,9.30
2019-04-28T03:43:53.698Z,9.30
2019-04-28T03:46:26.205Z,9.30
2019-04-28T03:48:56.111Z,9.30
2019-04-28T03:51:25.958Z,9.30
2019-04-28T03:53:55.747Z,9.20
2019-04-28T03:56:25.602Z,9.20
2019-04-28T03:58:55.439Z,9.20
2019-04-28T04:01:25.456Z,9.20
2019-04-28T04:03:55.250Z,9.20
2019-04-28T04:06:25.042Z,9.10
2019-04-28T04:08:54.805Z,9.10
2019-04-28T04:11:32.025Z,9.10
2019-04-28T04:14:11.277Z,9.10
2019-04-28T04:17:00.135Z,9.10
2019-04-28T04:19:31.349Z,9.10
2019-04-28T04:22:01.095Z,9.10
2019-04-28T04:24:31.037Z,9.10
2019-04-28T04:27:01.044Z,9.10
2019-04-28T04:29:31.046Z,9.00
2019-04-28T04:32:13.630Z,9.00
2019-04-28T04:34:32.541Z,9.00
2019-04-28T04:37:03.336Z,9.00
2019-04-28T04:39:33.835Z,9.00
2019-04-28T04:42:03.666Z,9.00
2019-04-28T04:44:33.426Z,9.00
2019-04-28T04:47:03.313Z,9.00
2019-04-28T04:49:33.087Z,9.00
2019-04-28T04:52:02.841Z,9.00
2019-04-28T04:54:36.590Z,8.90
2019-04-28T04:57:04.153Z,8.90
2019-04-28T04:59:35.309Z,9.00
2019-04-28T05:02:26.592Z,9.00
2019-04-28T05:04:45.661Z,9.00
2019-04-28T05:07:16.389Z,9.00
2019-04-28T05:09:46.193Z,9.00
2019-04-28T05:12:15.994Z,8.90
2019-04-28T05:14:45.962Z,8.90
2019-04-28T05:17:15.716Z,8.80
2019-04-28T05:19:45.513Z,8.80
2019-04-28T05:22:16.616Z,8.80
2019-04-28T05:24:52.996Z,8.80
2019-04-28T05:27:24.010Z,8.70
2019-04-28T05:29:51.382Z,8.80
2019-04-28T05:32:21.254Z,8.70
2019-04-28T05:34:52.933Z,8.70
2019-04-28T05:37:23.246Z,8.80
2019-04-28T05:39:53.052Z,8.80
2019-04-28T05:42:22.869Z,8.80
2019-04-28T05:44:52.876Z,8.80
2019-04-28T05:47:22.754Z,8.80
2019-04-28T05:50:00.306Z,8.70
2019-04-28T05:52:31.860Z,8.70
2019-04-28T05:55:10.144Z,8.70
2019-04-28T05:57:47.190Z,8.70
2019-04-28T06:00:19.766Z,8.70
2019-04-28T06:02:56.693Z,8.70
2019-04-28T06:05:25.713Z,8.70
2019-04-28T06:08:13.808Z,8.70
2019-04-28T06:10:43.690Z,8.70
2019-04-28T06:13:14.189Z,8.70
2019-04-28T06:15:44.010Z,8.60
2019-04-28T06:18:14.527Z,8.60
2019-04-28T06:20:44.286Z,8.60
2019-04-28T06:23:14.262Z,8.60
2019-04-28T06:25:44.030Z,8.60
2019-04-28T06:28:13.796Z,8.60
2019-04-28T06:30:43.596Z,8.60
2019-04-28T06:33:13.390Z,8.50
2019-04-28T06:35:43.198Z,8.50
2019-04-28T06:38:12.965Z,8.50
2019-04-28T06:40:42.744Z,8.50
2019-04-28T06:43:12.646Z,8.50
2019-04-28T06:45:42.425Z,8.40
2019-04-28T06:48:12.210Z,8.50
2019-04-28T06:50:42.061Z,8.40
2019-04-28T06:53:11.890Z,8.40
2019-04-28T06:55:41.701Z,8.40
2019-04-28T06:58:11.481Z,8.40
2019-04-28T07:00:41.438Z,8.40
2019-04-28T07:03:22.691Z,8.50
2019-04-28T07:05:42.774Z,8.50
2019-04-28T07:08:13.899Z,8.50
2019-04-28T07:10:43.805Z,8.40
2019-04-28T07:13:13.633Z,8.50
2019-04-28T07:15:43.442Z,8.50
2019-04-28T07:18:13.253Z,8.40
2019-04-28T07:20:59.539Z,8.40
2019-04-28T07:23:30.121Z,8.50
2019-04-28T07:26:00.167Z,8.40
2019-04-28T07:28:31.115Z,8.40
2019-04-28T07:31:01.202Z,8.40
2019-04-28T07:33:36.081Z,8.40
2019-04-28T07:36:02.605Z,8.40
2019-04-28T07:38:33.275Z,8.40
2019-04-28T07:41:03.219Z,8.40
2019-04-28T07:43:32.985Z,8.40
2019-04-28T07:46:02.882Z,8.40
2019-04-28T07:48:33.362Z,8.40
2019-04-28T07:51:03.174Z,8.40
2019-04-28T07:53:43.682Z,8.50
2019-04-28T07:56:13.489Z,8.40
2019-04-28T07:58:43.341Z,8.50
2019-04-28T08:01:13.694Z,8.50
2019-04-28T08:03:49.671Z,8.50
2019-04-28T08:06:15.367Z,8.50
2019-04-28T08:08:45.173Z,8.50
2019-04-28T08:11:15.150Z,8.50
2019-04-28T08:13:44.988Z,8.60
2019-04-28T08:16:14.882Z,8.60
2019-04-28T08:18:45.425Z,8.60
2019-04-28T08:21:15.377Z,8.60
2019-04-28T08:23:47.326Z,8.70
2019-04-28T08:26:17.603Z,8.60
2019-04-28T08:28:47.362Z,8.70
2019-04-28T08:31:19.507Z,8.70
2019-04-28T08:34:03.136Z,8.70
2019-04-28T08:36:33.009Z,8.70
2019-04-28T08:39:04.126Z,8.80
2019-04-28T08:41:35.020Z,8.90
2019-04-28T08:44:04.984Z,8.90
2019-04-28T08:46:34.779Z,8.90
2019-04-28T08:49:04.691Z,9.00
2019-04-28T08:51:35.460Z,9.00
2019-04-28T08:54:05.213Z,9.00
2019-04-28T08:56:34.974Z,9.10
2019-04-28T08:59:05.152Z,9.10
2019-04-28T09:01:35.932Z,9.20
2019-04-28T09:04:15.215Z,9.20
2019-04-28T09:06:37.161Z,9.30
2019-04-28T09:09:09.378Z,9.30
2019-04-28T09:11:39.146Z,9.40
2019-04-28T09:14:08.918Z,9.50
2019-04-28T09:16:39.700Z,9.50
2019-04-28T09:19:09.574Z,9.60
2019-04-28T09:21:39.444Z,9.70
2019-04-28T09:24:09.392Z,9.80
2019-04-28T09:26:39.256Z,9.90
2019-04-28T09:29:09.141Z,10.00
2019-04-28T09:31:38.918Z,10.10
2019-04-28T09:34:08.799Z,10.10
2019-04-28T09:36:38.683Z,10.20
2019-04-28T09:39:11.253Z,10.30
2019-04-28T09:41:43.570Z,10.50
2019-04-28T09:44:19.871Z,10.60
2019-04-28T09:46:51.122Z,10.70
2019-04-28T09:49:21.029Z,10.80
2019-04-28T09:51:50.861Z,10.90
2019-04-28T09:54:20.685Z,11.10
2019-04-28T09:56:56.935Z,11.20
2019-04-28T09:59:21.986Z,11.30
2019-04-28T10:01:51.751Z,11.40
2019-04-28T10:04:21.516Z,11.60
2019-04-28T10:06:51.350Z,11.70
2019-04-28T10:09:21.113Z,11.90
2019-04-28T10:11:50.889Z,12.00
2019-04-28T10:14:20.806Z,12.00
2019-04-28T10:16:50.631Z,12.10
2019-04-28T10:19:21.175Z,12.20
2019-04-28T10:21:50.977Z,12.40
2019-04-28T10:24:20.856Z,12.50
2019-04-28T10:26:50.621Z,12.60
2019-04-28T10:29:20.522Z,12.70
2019-04-28T10:31:50.310Z,12.70
2019-04-28T10:34:20.215Z,12.70
2019-04-28T10:36:50.216Z,12.80
2019-04-28T10:39:21.733Z,12.80
2019-04-28T10:41:51.751Z,12.70
2019-04-28T10:44:22.246Z,12.80
2019-04-28T10:46:52.025Z,12.80
2019-04-28T10:49:22.536Z,12.70
2019-04-28T10:51:59.143Z,12.70
2019-04-28T10:54:23.908Z,12.70
2019-04-28T10:56:53.699Z,12.70
2019-04-28T10:59:23.493Z,12.70
2019-04-28T11:01:53.337Z,12.80
2019-04-28T11:04:39.889Z,12.90
2019-04-28T11:07:11.563Z,12.90
2019-04-28T11:09:43.125Z,13.00
2019-04-28T11:12:26.740Z,13.20
2019-04-28T11:14:56.921Z,13.30
2019-04-28T11:17:27.077Z,13.50
2019-04-28T11:19:57.728Z,13.70
2019-04-28T11:22:27.522Z,13.80
2019-04-28T11:24:57.363Z,13.90
2019-04-28T11:27:27.132Z,14.00
2019-04-28T11:29:56.906Z,14.20
2019-04-28T11:32:27.453Z,14.30
2019-04-28T11:35:04.683Z,14.30
2019-04-28T11:37:34.620Z,14.40
2019-04-28T11:40:06.226Z,14.40
2019-04-28T11:42:36.036Z,14.50
2019-04-28T11:45:06.247Z,14.50
2019-04-28T11:47:36.025Z,14.60
2019-04-28T11:50:06.045Z,14.60
2019-04-28T11:52:35.924Z,14.70
2019-04-28T11:55:06.589Z,14.70
2019-04-28T11:57:36.478Z,14.80
2019-04-28T12:00:09.637Z,14.80
2019-04-28T12:02:39.457Z,14.90
2019-04-28T12:05:09.349Z,14.90
2019-04-28T12:07:39.194Z,15.00
2019-04-28T12:10:11.098Z,15.10
2019-04-28T12:12:42.512Z,15.10
2019-04-28T12:15:20.052Z,15.20
2019-04-28T12:17:54.254Z,15.20
2019-04-28T12:20:25.810Z,15.30
2019-04-28T12:22:55.697Z,15.30
2019-04-28T12:25:25.490Z,15.40
2019-04-28T12:27:55.292Z,15.50
2019-04-28T12:30:25.842Z,15.60
2019-04-28T12:32:56.638Z,15.60
2019-04-28T12:35:26.529Z,15.60
2019-04-28T12:37:56.341Z,15.70
2019-04-28T12:40:26.156Z,15.70
2019-04-28T12:42:55.938Z,15.70
2019-04-28T12:45:34.977Z,15.70
2019-04-28T12:47:57.452Z,15.80
2019-04-28T12:50:32.373Z,15.80
2019-04-28T12:53:02.150Z,15.90
2019-04-28T12:55:32.040Z,16.00
2019-04-28T12:58:04.425Z,16.10
2019-04-28T13:00:42.197Z,16.10
2019-04-28T13:03:30.395Z,16.10
2019-04-28T13:06:05.613Z,16.10
2019-04-28T13:08:33.312Z,16.00
2019-04-28T13:11:03.373Z,15.90
2019-04-28T13:13:33.137Z,15.80
2019-04-28T13:16:03.848Z,15.60
2019-04-28T13:18:33.826Z,15.60
2019-04-28T13:21:03.846Z,15.50
2019-04-28T13:23:34.809Z,15.50
2019-04-28T13:26:04.733Z,15.40
2019-04-28T13:28:34.582Z,15.40
2019-04-28T13:31:04.514Z,15.40
2019-04-28T13:33:34.305Z,15.40
2019-04-28T13:36:14.113Z,15.30
2019-04-28T13:38:35.945Z,15.30
2019-04-28T13:41:05.726Z,15.40
2019-04-28T13:43:35.862Z,15.40
2019-04-28T13:46:05.764Z,15.40
2019-04-28T13:48:35.564Z,15.40
2019-04-28T13:51:05.419Z,15.50
2019-04-28T13:53:35.279Z,15.50
2019-04-28T13:56:05.166Z,15.40
2019-04-28T13:58:36.053Z,15.50
2019-04-28T14:01:07.645Z,15.50
2019-04-28T14:03:43.235Z,15.50
2019-04-28T14:06:27.192Z,15.50
2019-04-28T14:08:46.298Z,15.40
2019-04-28T14:11:16.092Z,15.40
2019-04-28T14:13:45.897Z,15.40
2019-04-28T14:16:15.670Z,15.40
2019-04-28T14:18:45.430Z,15.40
2019-04-28T14:21:15.205Z,15.40
2019-04-28T14:23:45.249Z,15.40
2019-04-28T14:26:15.784Z,15.40
2019-04-28T14:28:46.767Z,15.40
2019-04-28T14:31:16.593Z,15.50
2019-04-28T14:33:46.482Z,15.60
2019-04-28T14:36:16.309Z,15.60
2019-04-28T14:38:46.140Z,15.70
2019-04-28T14:41:15.942Z,15.80
2019-04-28T14:43:45.750Z,15.80
2019-04-28T14:46:15.521Z,15.80
2019-04-28T14:48:45.302Z,15.90
2019-04-28T14:51:15.414Z,15.80
2019-04-28T14:53:45.215Z,15.80
2019-04-28T14:56:15.070Z,15.70
2019-04-28T14:58:44.950Z,15.70
2019-04-28T15:01:16.426Z,15.70
2019-04-28T15:03:48.249Z,15.80
2019-04-28T15:06:19.661Z,15.90
2019-04-28T15:08:54.116Z,15.90
2019-04-28T15:11:26.289Z,16.00
2019-04-28T15:13:56.198Z,16.10
2019-04-28T15:16:26.706Z,16.10
2019-04-28T15:18:56.484Z,16.10
2019-04-28T15:21:26.377Z,16.10
2019-04-28T15:23:56.206Z,16.20
2019-04-28T15:26:26.111Z,16.20
2019-04-28T15:28:55.931Z,16.20
2019-04-28T15:31:25.908Z,16.20
2019-04-28T15:33:55.735Z,16.20
2019-04-28T15:36:25.569Z,16.20
2019-04-28T15:38:55.352Z,16.20
2019-04-28T15:41:25.166Z,16.20
2019-04-28T15:43:55.008Z,16.20
2019-04-28T15:46:24.814Z,16.30
2019-04-28T15:48:55.294Z,16.30
2019-04-28T15:51:25.279Z,16.30
2019-04-28T15:53:55.666Z,16.30
2019-04-28T15:56:30.197Z,16.30
2019-04-28T15:59:00.013Z,16.30
2019-04-28T16:01:29.876Z,16.30
2019-04-28T16:03:59.816Z,16.30
2019-04-28T16:06:29.618Z,16.40
2019-04-28T16:08:59.396Z,16.40
2019-04-28T16:11:29.889Z,16.40
2019-04-28T16:13:59.669Z,16.30
2019-04-28T16:16:29.462Z,16.30
2019-04-28T16:18:59.315Z,16.30
2019-04-28T16:21:29.110Z,16.20
2019-04-28T16:23:58.882Z,16.10
2019-04-28T16:26:28.667Z,16.00
2019-04-28T16:28:58.554Z,15.90
2019-04-28T16:31:28.364Z,15.70
2019-04-28T16:33:58.133Z,15.50
2019-04-28T16:36:27.928Z,15.30
2019-04-28T16:38:57.733Z,15.20
2019-04-28T16:41:30.611Z,15.00
2019-04-28T16:44:01.070Z,14.80
2019-04-28T16:46:30.949Z,14.70
2019-04-28T16:49:00.826Z,14.60
2019-04-28T16:51:31.565Z,14.50
2019-04-28T16:54:01.559Z,14.50
2019-04-28T16:56:41.889Z,14.40
2019-04-28T16:59:22.158Z,14.40
2019-04-28T17:02:02.542Z,14.30
2019-04-28T17:04:32.514Z,14.30
2019-04-28T17:07:02.309Z,14.30
2019-04-28T17:09:32.261Z,14.20
2019-04-28T17:12:02.045Z,14.20
2019-04-28T17:14:31.934Z,14.20
2019-04-28T17:17:01.839Z,14.20
2019-04-28T17:19:31.660Z,14.10
2019-04-28T17:22:01.425Z,14.10
2019-04-28T17:24:31.309Z,14.10
2019-04-28T17:27:01.192Z,14.00
2019-04-28T17:29:31.090Z,14.00
2019-04-28T17:32:01.009Z,13.90
2019-04-28T17:34:30.799Z,13.90
2019-04-28T17:37:00.743Z,13.90
2019-04-28T17:39:30.558Z,13.80
2019-04-28T17:42:00.329Z,13.80
2019-04-28T17:44:30.218Z,13.80
2019-04-28T17:47:00.108Z,13.80
2019-04-28T17:49:31.574Z,13.80
2019-04-28T17:52:01.409Z,13.70
2019-04-28T17:54:31.292Z,13.60
2019-04-28T17:57:01.256Z,13.60
2019-04-28T17:59:31.026Z,13.60
2019-04-28T18:02:08.443Z,13.50
2019-04-28T18:04:45.633Z,13.50
2019-04-28T18:07:17.312Z,13.50
2019-04-28T18:09:47.806Z,13.50
2019-04-28T18:12:17.674Z,13.40
2019-04-28T18:14:50.002Z,13.40
2019-04-28T18:17:33.264Z,13.30
2019-04-28T18:20:03.313Z,13.30
2019-04-28T18:22:35.138Z,13.30
2019-04-28T18:25:06.757Z,13.20
2019-04-28T18:27:36.534Z,13.10
2019-04-28T18:30:07.704Z,13.10
2019-04-28T18:32:54.355Z,13.10
2019-04-28T18:35:31.234Z,13.00
2019-04-28T18:38:02.703Z,12.90
2019-04-28T18:40:34.849Z,12.90
2019-04-28T18:43:11.989Z,12.90
2019-04-28T18:45:41.798Z,12.90
2019-04-28T18:48:11.569Z,12.80
2019-04-28T18:50:41.341Z,12.80
2019-04-28T18:53:11.150Z,12.80
2019-04-28T18:55:40.910Z,12.70
2019-04-28T18:58:10.754Z,12.70
2019-04-28T19:00:42.401Z,12.70
2019-04-28T19:03:12.166Z,12.60
2019-04-28T19:05:43.673Z,12.60
2019-04-28T19:08:20.805Z,12.50
2019-04-28T19:10:55.171Z,12.50
2019-04-28T19:13:26.768Z,12.40
2019-04-28T19:16:03.866Z,12.30
2019-04-28T19:18:40.902Z,12.20
2019-04-28T19:21:11.762Z,12.20
2019-04-28T19:23:41.534Z,12.10
2019-04-28T19:26:11.481Z,12.00
2019-04-28T19:28:41.422Z,11.90
2019-04-28T19:31:11.894Z,11.80
2019-04-28T19:33:41.862Z,11.70
2019-04-28T19:36:12.496Z,11.60
2019-04-28T19:38:42.273Z,11.60
2019-04-28T19:41:12.053Z,11.50
2019-04-28T19:43:41.834Z,11.40
2019-04-28T19:46:13.394Z,11.40
2019-04-28T19:48:43.507Z,11.30
2019-04-28T19:51:13.273Z,11.30
2019-04-28T19:53:43.093Z,11.30
2019-04-28T19:56:23.876Z,11.30
2019-04-28T19:58:55.314Z,11.30
2019-04-28T20:01:27.055Z,11.20
2019-04-28T20:03:56.823Z,11.20
2019-04-28T20:06:26.643Z,11.20
2019-04-28T20:08:57.198Z,11.20
2019-04-28T20:11:27.132Z,11.20
2019-04-28T20:13:56.927Z,11.20
2019-04-28T20:16:26.752Z,11.20
2019-04-28T20:18:56.944Z,11.20
2019-04-28T20:21:26.746Z,11.20
2019-04-28T20:23:56.519Z,11.20
2019-04-28T20:26:26.335Z,11.20
2019-04-28T20:28:56.220Z,11.20
2019-04-28T20:31:26.119Z,11.10
2019-04-28T20:33:55.921Z,11.10
2019-04-28T20:36:36.144Z,11.00
2019-04-28T20:39:08.714Z,11.00
2019-04-28T20:41:40.078Z,10.90
2019-04-28T20:44:09.870Z,10.90
2019-04-28T20:46:39.645Z,10.80
2019-04-28T20:49:09.615Z,10.80
2019-04-28T20:51:39.750Z,10.70
2019-04-28T20:54:09.521Z,10.70
2019-04-28T20:56:39.376Z,10.60
2019-04-28T20:59:09.680Z,10.60
2019-04-28T21:01:39.441Z,10.50
2019-04-28T21:04:10.133Z,10.50
2019-04-28T21:06:39.927Z,10.40
2019-04-28T21:09:09.838Z,10.40
2019-04-28T21:11:40.022Z,10.30
2019-04-28T21:14:09.977Z,10.30
2019-04-28T21:16:39.782Z,10.20
2019-04-28T21:19:09.558Z,10.20
2019-04-28T21:21:39.452Z,10.10
2019-04-28T21:24:09.274Z,10.10
2019-04-28T21:26:39.125Z,10.10
2019-04-28T21:29:08.935Z,10.00
2019-04-28T21:31:38.777Z,10.00
2019-04-28T21:34:09.293Z,10.00
2019-04-28T21:36:39.250Z,10.00
2019-04-28T21:39:09.674Z,10.00
2019-04-28T21:41:39.722Z,10.00
2019-04-28T21:44:13.814Z,9.90
2019-04-28T21:46:57.397Z,9.90
2019-04-28T21:49:31.652Z,9.90
2019-04-28T21:52:01.474Z,9.90
2019-04-28T21:54:31.274Z,9.80
2019-04-28T21:57:01.034Z,9.80
2019-04-28T21:59:31.793Z,9.80
2019-04-28T22:02:01.785Z,9.80
2019-04-28T22:04:31.742Z,9.70
2019-04-28T22:07:01.801Z,9.70
2019-04-28T22:09:31.733Z,9.60
2019-04-28T22:12:01.558Z,9.60
2019-04-28T22:14:31.377Z,9.60
2019-04-28T22:17:01.611Z,9.50
2019-04-28T22:19:31.416Z,9.50
2019-04-28T22:22:01.296Z,9.50
2019-04-28T22:24:32.706Z,9.40
2019-04-28T22:27:02.516Z,9.40
2019-04-28T22:29:32.594Z,9.40
2019-04-28T22:32:02.431Z,9.40
2019-04-28T22:34:32.286Z,9.30
2019-04-28T22:37:02.133Z,9.40
2019-04-28T22:39:31.902Z,9.40
2019-04-28T22:42:01.662Z,9.40
2019-04-28T22:44:31.513Z,9.40
2019-04-28T22:47:01.604Z,9.50
2019-04-28T22:49:31.414Z,9.50
2019-04-28T22:52:02.042Z,9.50
2019-04-28T22:54:36.445Z,9.50
2019-04-28T22:57:16.854Z,9.50
2019-04-28T22:59:51.214Z,9.50
2019-04-28T23:02:22.679Z,9.50
2019-04-28T23:05:03.574Z,9.60
2019-04-28T23:07:33.438Z,9.60
2019-04-28T23:10:04.945Z,9.60
2019-04-28T23:12:34.823Z,9.60
2019-04-28T23:15:07.225Z,9.60
2019-04-28T23:17:37.036Z,9.60
2019-04-28T23:20:09.918Z,9.70
2019-04-28T23:22:47.114Z,9.60
2019-04-28T23:25:13.539Z,9.70
2019-04-28T23:27:43.801Z,9.70
2019-04-28T23:30:16.649Z,9.70
2019-04-28T23:32:46.563Z,9.70
2019-04-28T23:35:16.342Z,9.70
2019-04-28T23:37:46.238Z,9.70
2019-04-28T23:40:16.005Z,9.70
2019-04-28T23:42:47.415Z,9.70
2019-04-28T23:45:17.185Z,9.70
2019-04-28T23:47:46.945Z,9.70
2019-04-28T23:50:19.762Z,9.70
2019-04-28T23:53:00.730Z,9.70
2019-04-28T23:55:30.510Z,9.70
2019-04-28T23:58:00.453Z,9.60
